sensor_id;sensor_type;location;lat;lon;timestamp;pressure;altitude;pressure_sealevel;temperature;humidity
62978;BME280;49073;42.352;23.808;2024-03-07T00:01:26;94562.44;;;5.64;100.00
62978;BME280;49073;42.352;23.808;2024-03-07T00:04:27;94557.06;;;5.73;100.00
62978;BME280;49073;42.352;23.808;2024-03-07T00:07:27;94555.78;;;5.58;100.00
62978;BME280;49073;42.352;23.808;2024-03-07T00:10:28;94557.66;;;5.58;100.00
62978;BME280;49073;42.352;23.808;2024-03-07T00:13:29;94565.13;;;5.56;100.00
62978;BME280;49073;42.352;23.808;2024-03-07T00:16:32;94554.03;;;5.62;100.00
62978;BME280;49073;42.352;23.808;2024-03-07T00:19:33;94552.50;;;5.61;100.00
62978;BME280;49073;42.352;23.808;2024-03-07T00:22:35;94555.22;;;5.52;100.00
62978;BME280;49073;42.352;23.808;2024-03-07T00:25:35;94555.22;;;5.52;100.00
62978;BME280;49073;42.352;23.808;2024-03-07T00:28:36;94552.44;;;5.49;100.00
62978;BME280;49073;42.352;23.808;2024-03-07T00:31:39;94557.53;;;5.54;100.00
62978;BME280;49073;42.352;23.808;2024-03-07T00:34:40;94553.75;;;5.43;100.00
62978;BME280;49073;42.352;23.808;2024-03-07T00:37:40;94556.38;;;5.43;100.00
62978;BME280;49073;42.352;23.808;2024-03-07T00:40:41;94547.75;;;5.33;100.00
62978;BME280;49073;42.352;23.808;2024-03-07T00:43:41;94555.84;;;5.28;100.00
62978;BME280;49073;42.352;23.808;2024-03-07T00:46:42;94550.66;;;5.41;100.00
62978;BME280;49073;42.352;23.808;2024-03-07T00:49:43;94541.69;;;5.33;100.00
62978;BME280;49073;42.352;23.808;2024-03-07T00:52:43;94547.38;;;5.44;100.00
62978;BME280;49073;42.352;23.808;2024-03-07T00:55:44;94539.50;;;5.35;100.00
62978;BME280;49073;42.352;23.808;2024-03-07T00:58:45;94547.09;;;5.36;100.00
62978;BME280;49073;42.352;23.808;2024-03-07T01:01:45;94536.53;;;5.36;100.00
62978;BME280;49073;42.352;23.808;2024-03-07T01:04:46;94539.09;;;5.24;100.00
62978;BME280;49073;42.352;23.808;2024-03-07T01:07:46;94543.28;;;5.25;100.00
62978;BME280;49073;42.352;23.808;2024-03-07T01:10:47;94544.66;;;5.10;100.00
62978;BME280;49073;42.352;23.808;2024-03-07T01:13:49;94544.66;;;5.10;100.00
62978;BME280;49073;42.352;23.808;2024-03-07T01:16:49;94550.56;;;5.07;100.00
62978;BME280;49073;42.352;23.808;2024-03-07T01:19:50;94544.94;;;5.08;100.00
62978;BME280;49073;42.352;23.808;2024-03-07T01:22:51;94541.56;;;5.08;100.00
62978;BME280;49073;42.352;23.808;2024-03-07T01:25:54;94539.47;;;5.14;100.00
62978;BME280;49073;42.352;23.808;2024-03-07T01:28:59;94540.91;;;5.11;100.00
62978;BME280;49073;42.352;23.808;2024-03-07T01:32:00;94530.84;;;5.04;100.00
62978;BME280;49073;42.352;23.808;2024-03-07T01:35:01;94537.56;;;5.02;100.00
62978;BME280;49073;42.352;23.808;2024-03-07T01:38:07;94537.66;;;5.05;100.00
62978;BME280;49073;42.352;23.808;2024-03-07T01:41:08;94524.91;;;5.07;100.00
62978;BME280;49073;42.352;23.808;2024-03-07T01:44:10;94524.66;;;5.00;100.00
62978;BME280;49073;42.352;23.808;2024-03-07T01:47:11;94533.97;;;4.98;100.00
62978;BME280;49073;42.352;23.808;2024-03-07T01:50:11;94528.63;;;4.85;100.00
62978;BME280;49073;42.352;23.808;2024-03-07T01:53:13;94535.44;;;4.86;100.00
62978;BME280;49073;42.352;23.808;2024-03-07T01:56:14;94525.25;;;4.76;100.00
62978;BME280;49073;42.352;23.808;2024-03-07T01:59:17;94533.97;;;4.76;100.00
62978;BME280;49073;42.352;23.808;2024-03-07T02:02:20;94528.09;;;4.71;100.00
62978;BME280;49073;42.352;23.808;2024-03-07T02:05:21;94533.66;;;4.69;100.00
62978;BME280;49073;42.352;23.808;2024-03-07T02:08:22;94530.50;;;4.85;100.00
62978;BME280;49073;42.352;23.808;2024-03-07T02:11:22;94530.81;;;4.83;100.00
62978;BME280;49073;42.352;23.808;2024-03-07T02:14:24;94525.00;;;4.69;100.00
62978;BME280;49073;42.352;23.808;2024-03-07T02:17:27;94520.94;;;4.71;100.00
62978;BME280;49073;42.352;23.808;2024-03-07T02:20:28;94522.44;;;4.81;100.00
62978;BME280;49073;42.352;23.808;2024-03-07T02:23:28;94523.56;;;4.71;100.00
62978;BME280;49073;42.352;23.808;2024-03-07T02:26:29;94521.06;;;4.75;100.00
62978;BME280;49073;42.352;23.808;2024-03-07T02:29:30;94531.59;;;4.84;100.00
62978;BME280;49073;42.352;23.808;2024-03-07T02:32:31;94540.84;;;4.69;100.00
62978;BME280;49073;42.352;23.808;2024-03-07T02:35:34;94546.41;;;4.67;100.00
62978;BME280;49073;42.352;23.808;2024-03-07T02:38:37;94543.94;;;4.71;100.00
62978;BME280;49073;42.352;23.808;2024-03-07T02:41:37;94549.34;;;4.74;100.00
62978;BME280;49073;42.352;23.808;2024-03-07T02:44:38;94541.25;;;4.79;100.00
62978;BME280;49073;42.352;23.808;2024-03-07T02:47:39;94544.72;;;4.92;100.00
62978;BME280;49073;42.352;23.808;2024-03-07T02:50:42;94544.44;;;4.94;100.00
62978;BME280;49073;42.352;23.808;2024-03-07T02:53:43;94543.19;;;4.91;100.00
62978;BME280;49073;42.352;23.808;2024-03-07T02:56:45;94549.91;;;4.89;100.00
62978;BME280;49073;42.352;23.808;2024-03-07T02:59:46;94559.09;;;4.83;100.00
62978;BME280;49073;42.352;23.808;2024-03-07T03:02:47;94557.56;;;4.73;100.00
62978;BME280;49073;42.352;23.808;2024-03-07T03:05:48;94556.34;;;4.70;100.00
62978;BME280;49073;42.352;23.808;2024-03-07T03:08:49;94550.72;;;4.80;100.00
62978;BME280;49073;42.352;23.808;2024-03-07T03:11:50;94555.88;;;4.68;100.00
62978;BME280;49073;42.352;23.808;2024-03-07T03:14:51;94560.63;;;4.84;100.00
62978;BME280;49073;42.352;23.808;2024-03-07T03:17:53;94557.59;;;5.03;100.00
62978;BME280;49073;42.352;23.808;2024-03-07T03:20:54;94560.81;;;5.08;100.00
62978;BME280;49073;42.352;23.808;2024-03-07T03:23:55;94564.22;;;5.09;100.00
62978;BME280;49073;42.352;23.808;2024-03-07T03:26:56;94572.28;;;5.13;100.00
62978;BME280;49073;42.352;23.808;2024-03-07T03:29:57;94580.00;;;5.18;100.00
62978;BME280;49073;42.352;23.808;2024-03-07T03:33:00;94583.94;;;5.12;100.00
62978;BME280;49073;42.352;23.808;2024-03-07T03:36:01;94584.06;;;5.15;100.00
62978;BME280;49073;42.352;23.808;2024-03-07T03:39:04;94600.78;;;4.98;100.00
62978;BME280;49073;42.352;23.808;2024-03-07T03:42:06;94605.00;;;4.51;100.00
62978;BME280;49073;42.352;23.808;2024-03-07T03:45:08;94593.09;;;4.36;100.00
62978;BME280;49073;42.352;23.808;2024-03-07T03:48:09;94591.47;;;4.62;100.00
62978;BME280;49073;42.352;23.808;2024-03-07T03:51:10;94579.81;;;4.63;100.00
62978;BME280;49073;42.352;23.808;2024-03-07T03:54:13;94575.44;;;4.67;100.00
62978;BME280;49073;42.352;23.808;2024-03-07T03:57:16;94572.97;;;4.71;100.00
62978;BME280;49073;42.352;23.808;2024-03-07T04:00:18;94581.59;;;4.80;100.00
62978;BME280;49073;42.352;23.808;2024-03-07T04:03:22;94584.59;;;4.78;100.00
62978;BME280;49073;42.352;23.808;2024-03-07T04:06:23;94581.94;;;4.78;100.00
62978;BME280;49073;42.352;23.808;2024-03-07T04:09:24;94573.84;;;4.84;100.00
62978;BME280;49073;42.352;23.808;2024-03-07T04:12:24;94581.88;;;4.87;100.00
62978;BME280;49073;42.352;23.808;2024-03-07T04:15:26;94586.75;;;5.06;100.00
62978;BME280;49073;42.352;23.808;2024-03-07T04:18:32;94586.25;;;5.13;100.00
62978;BME280;49073;42.352;23.808;2024-03-07T04:21:32;94585.81;;;5.11;100.00
62978;BME280;49073;42.352;23.808;2024-03-07T04:24:33;94598.41;;;5.05;100.00
62978;BME280;49073;42.352;23.808;2024-03-07T04:27:34;94596.06;;;4.83;100.00
62978;BME280;49073;42.352;23.808;2024-03-07T04:30:37;94578.25;;;4.62;100.00
62978;BME280;49073;42.352;23.808;2024-03-07T04:33:37;94567.25;;;4.60;100.00
62978;BME280;49073;42.352;23.808;2024-03-07T04:36:38;94569.25;;;4.63;100.00
62978;BME280;49073;42.352;23.808;2024-03-07T04:39:39;94568.94;;;4.64;100.00
62978;BME280;49073;42.352;23.808;2024-03-07T04:42:41;94572.34;;;4.65;100.00
62978;BME280;49073;42.352;23.808;2024-03-07T04:45:42;94569.63;;;4.53;100.00
62978;BME280;49073;42.352;23.808;2024-03-07T04:48:43;94561.69;;;4.53;100.00
62978;BME280;49073;42.352;23.808;2024-03-07T04:51:43;94568.69;;;4.57;100.00
62978;BME280;49073;42.352;23.808;2024-03-07T04:54:44;94560.78;;;4.48;100.00
62978;BME280;49073;42.352;23.808;2024-03-07T04:57:45;94558.50;;;4.38;100.00
62978;BME280;49073;42.352;23.808;2024-03-07T05:00:45;94566.13;;;4.31;100.00
62978;BME280;49073;42.352;23.808;2024-03-07T05:03:46;94555.78;;;4.08;100.00
62978;BME280;49073;42.352;23.808;2024-03-07T05:06:46;94568.38;;;4.02;100.00
62978;BME280;49073;42.352;23.808;2024-03-07T05:09:48;94571.84;;;4.33;100.00
62978;BME280;49073;42.352;23.808;2024-03-07T05:12:49;94571.53;;;4.34;100.00
62978;BME280;49073;42.352;23.808;2024-03-07T05:15:50;94582.72;;;4.31;100.00
62978;BME280;49073;42.352;23.808;2024-03-07T05:18:54;94593.88;;;4.37;100.00
62978;BME280;49073;42.352;23.808;2024-03-07T05:21:55;94587.69;;;4.33;100.00
62978;BME280;49073;42.352;23.808;2024-03-07T05:24:56;94586.13;;;4.32;100.00
62978;BME280;49073;42.352;23.808;2024-03-07T05:27:58;94600.59;;;4.26;100.00
62978;BME280;49073;42.352;23.808;2024-03-07T05:30:59;94601.06;;;4.19;100.00
62978;BME280;49073;42.352;23.808;2024-03-07T05:34:01;94608.66;;;4.20;100.00
62978;BME280;49073;42.352;23.808;2024-03-07T05:37:04;94617.97;;;4.18;100.00
62978;BME280;49073;42.352;23.808;2024-03-07T05:40:05;94612.22;;;4.16;100.00
62978;BME280;49073;42.352;23.808;2024-03-07T05:43:07;94606.03;;;4.20;100.00
62978;BME280;49073;42.352;23.808;2024-03-07T05:46:08;94610.84;;;4.18;100.00
62978;BME280;49073;42.352;23.808;2024-03-07T05:49:11;94614.25;;;4.10;100.00
62978;BME280;49073;42.352;23.808;2024-03-07T05:52:11;94610.84;;;4.10;100.00
62978;BME280;49073;42.352;23.808;2024-03-07T05:55:12;94608.97;;;4.10;100.00
62978;BME280;49073;42.352;23.808;2024-03-07T05:58:12;94613.16;;;4.20;100.00
62978;BME280;49073;42.352;23.808;2024-03-07T06:01:13;94604.03;;;4.17;100.00
62978;BME280;49073;42.352;23.808;2024-03-07T06:04:14;94603.41;;;4.12;100.00
62978;BME280;49073;42.352;23.808;2024-03-07T06:07:15;94605.75;;;4.13;100.00
62978;BME280;49073;42.352;23.808;2024-03-07T06:10:16;94605.41;;;4.24;100.00
62978;BME280;49073;42.352;23.808;2024-03-07T06:13:17;94605.38;;;4.32;100.00
62978;BME280;49073;42.352;23.808;2024-03-07T06:16:18;94603.00;;;4.40;100.00
62978;BME280;49073;42.352;23.808;2024-03-07T06:19:20;94607.97;;;4.50;100.00
62978;BME280;49073;42.352;23.808;2024-03-07T06:22:21;94599.91;;;4.46;100.00
62978;BME280;49073;42.352;23.808;2024-03-07T06:25:22;94603.91;;;4.61;100.00
62978;BME280;49073;42.352;23.808;2024-03-07T06:28:34;94606.28;;;4.45;100.00
62978;BME280;49073;42.352;23.808;2024-03-07T06:31:34;94597.72;;;4.48;100.00
62978;BME280;49073;42.352;23.808;2024-03-07T06:34:35;94593.81;;;4.55;100.00
62978;BME280;49073;42.352;23.808;2024-03-07T06:37:35;94607.13;;;4.67;100.00
62978;BME280;49073;42.352;23.808;2024-03-07T06:40:41;94600.28;;;4.66;100.00
62978;BME280;49073;42.352;23.808;2024-03-07T06:43:44;94601.53;;;4.69;100.00
62978;BME280;49073;42.352;23.808;2024-03-07T06:46:45;94607.28;;;4.71;100.00
62978;BME280;49073;42.352;23.808;2024-03-07T06:49:46;94611.47;;;4.72;100.00
62978;BME280;49073;42.352;23.808;2024-03-07T06:52:46;94606.66;;;4.65;100.00
62978;BME280;49073;42.352;23.808;2024-03-07T06:55:47;94611.19;;;4.56;100.00
62978;BME280;49073;42.352;23.808;2024-03-07T06:58:49;94613.22;;;4.59;100.00
62978;BME280;49073;42.352;23.808;2024-03-07T07:01:49;94622.38;;;4.61;100.00
62978;BME280;49073;42.352;23.808;2024-03-07T07:04:51;94618.03;;;4.57;100.00
62978;BME280;49073;42.352;23.808;2024-03-07T07:07:52;94625.94;;;4.65;100.00
62978;BME280;49073;42.352;23.808;2024-03-07T07:10:53;94635.75;;;4.56;100.00
62978;BME280;49073;42.352;23.808;2024-03-07T07:13:54;94646.13;;;4.61;100.00
62978;BME280;49073;42.352;23.808;2024-03-07T07:16:55;94647.50;;;4.68;100.00
62978;BME280;49073;42.352;23.808;2024-03-07T07:19:57;94665.06;;;4.55;100.00
62978;BME280;49073;42.352;23.808;2024-03-07T07:23:00;94680.94;;;4.37;100.00
62978;BME280;49073;42.352;23.808;2024-03-07T07:26:02;94683.44;;;4.07;100.00
62978;BME280;49073;42.352;23.808;2024-03-07T07:29:04;94671.03;;;3.90;100.00
62978;BME280;49073;42.352;23.808;2024-03-07T07:32:05;94666.72;;;3.94;100.00
62978;BME280;49073;42.352;23.808;2024-03-07T07:35:07;94665.59;;;4.13;100.00
62978;BME280;49073;42.352;23.808;2024-03-07T07:38:11;94668.53;;;4.20;100.00
62978;BME280;49073;42.352;23.808;2024-03-07T07:41:13;94668.09;;;4.27;100.00
62978;BME280;49073;42.352;23.808;2024-03-07T07:44:15;94665.28;;;4.32;100.00
62978;BME280;49073;42.352;23.808;2024-03-07T07:47:16;94667.13;;;4.31;100.00
62978;BME280;49073;42.352;23.808;2024-03-07T07:50:22;94665.41;;;4.35;100.00
62978;BME280;49073;42.352;23.808;2024-03-07T07:53:23;94666.03;;;4.50;100.00
62978;BME280;49073;42.352;23.808;2024-03-07T07:56:24;94660.13;;;4.53;100.00
62978;BME280;49073;42.352;23.808;2024-03-07T07:59:25;94669.09;;;4.61;100.00
62978;BME280;49073;42.352;23.808;2024-03-07T08:02:25;94662.72;;;4.62;100.00
62978;BME280;49073;42.352;23.808;2024-03-07T08:05:33;94654.34;;;4.60;100.00
62978;BME280;49073;42.352;23.808;2024-03-07T08:08:33;94653.75;;;4.45;100.00
62978;BME280;49073;42.352;23.808;2024-03-07T08:11:34;94661.06;;;4.40;100.00
62978;BME280;49073;42.352;23.808;2024-03-07T08:14:35;94659.66;;;4.42;100.00
62978;BME280;49073;42.352;23.808;2024-03-07T08:17:35;94652.84;;;4.41;100.00
62978;BME280;49073;42.352;23.808;2024-03-07T08:20:36;94660.28;;;4.39;100.00
62978;BME280;49073;42.352;23.808;2024-03-07T08:23:38;94654.09;;;4.26;100.00
62978;BME280;49073;42.352;23.808;2024-03-07T08:26:38;94662.47;;;4.28;100.00
62978;BME280;49073;42.352;23.808;2024-03-07T08:29:44;94650.69;;;4.26;100.00
62978;BME280;49073;42.352;23.808;2024-03-07T08:32:50;94646.34;;;4.30;100.00
62978;BME280;49073;42.352;23.808;2024-03-07T08:35:52;94648.84;;;4.17;100.00
62978;BME280;49073;42.352;23.808;2024-03-07T08:38:53;94648.69;;;4.14;100.00
62978;BME280;49073;42.352;23.808;2024-03-07T08:41:53;94646.34;;;4.12;100.00
62978;BME280;49073;42.352;23.808;2024-03-07T08:44:54;94650.69;;;4.17;100.00
62978;BME280;49073;42.352;23.808;2024-03-07T08:47:56;94649.00;;;4.12;100.00
62978;BME280;49073;42.352;23.808;2024-03-07T08:50:57;94657.84;;;4.07;100.00
62978;BME280;49073;42.352;23.808;2024-03-07T08:53:57;94656.00;;;3.99;100.00
62978;BME280;49073;42.352;23.808;2024-03-07T08:56:58;94653.66;;;3.98;100.00
62978;BME280;49073;42.352;23.808;2024-03-07T08:59:58;94654.28;;;4.03;100.00
62978;BME280;49073;42.352;23.808;2024-03-07T09:03:01;94647.78;;;3.83;100.00
62978;BME280;49073;42.352;23.808;2024-03-07T09:06:09;94644.84;;;3.76;100.00
62978;BME280;49073;42.352;23.808;2024-03-07T09:09:13;94634.75;;;3.78;100.00
62978;BME280;49073;42.352;23.808;2024-03-07T09:12:14;94640.66;;;3.84;100.00
62978;BME280;49073;42.352;23.808;2024-03-07T09:15:14;94649.50;;;3.88;100.00
62978;BME280;49073;42.352;23.808;2024-03-07T09:18:17;94648.88;;;3.82;100.00
62978;BME280;49073;42.352;23.808;2024-03-07T09:21:20;94655.06;;;3.86;100.00
62978;BME280;49073;42.352;23.808;2024-03-07T09:24:23;94654.59;;;3.84;100.00
62978;BME280;49073;42.352;23.808;2024-03-07T09:27:24;94647.31;;;3.99;100.00
62978;BME280;49073;42.352;23.808;2024-03-07T09:30:25;94655.22;;;3.90;100.00
62978;BME280;49073;42.352;23.808;2024-03-07T09:33:27;94651.19;;;3.92;100.00
62978;BME280;49073;42.352;23.808;2024-03-07T09:36:28;94655.06;;;3.95;100.00
62978;BME280;49073;42.352;23.808;2024-03-07T09:39:28;94656.94;;;3.77;100.00
62978;BME280;49073;42.352;23.808;2024-03-07T09:42:33;94670.25;;;3.72;100.00
62978;BME280;49073;42.352;23.808;2024-03-07T09:45:35;94672.41;;;3.78;100.00
62978;BME280;49073;42.352;23.808;2024-03-07T09:48:38;94673.84;;;3.85;100.00
62978;BME280;49073;42.352;23.808;2024-03-07T09:51:39;94667.00;;;3.75;100.00
62978;BME280;49073;42.352;23.808;2024-03-07T09:54:41;94672.28;;;3.92;100.00
62978;BME280;49073;42.352;23.808;2024-03-07T09:57:42;94667.78;;;4.02;100.00
62978;BME280;49073;42.352;23.808;2024-03-07T10:00:43;94665.94;;;4.02;100.00
62978;BME280;49073;42.352;23.808;2024-03-07T10:03:45;94664.06;;;4.03;100.00
62978;BME280;49073;42.352;23.808;2024-03-07T10:06:47;94670.59;;;4.14;100.00
62978;BME280;49073;42.352;23.808;2024-03-07T10:09:48;94661.25;;;4.17;100.00
62978;BME280;49073;42.352;23.808;2024-03-07T10:12:51;94656.78;;;4.17;100.00
62978;BME280;49073;42.352;23.808;2024-03-07T10:15:57;94668.53;;;4.20;100.00
62978;BME280;49073;42.352;23.808;2024-03-07T10:19:04;94666.06;;;4.24;100.00
62978;BME280;49073;42.352;23.808;2024-03-07T10:22:04;94666.06;;;4.06;100.00
62978;BME280;49073;42.352;23.808;2024-03-07T10:25:07;94665.44;;;4.09;100.00
62978;BME280;49073;42.352;23.808;2024-03-07T10:28:09;94667.16;;;4.22;100.00
62978;BME280;49073;42.352;23.808;2024-03-07T10:31:11;94666.69;;;4.20;100.00
62978;BME280;49073;42.352;23.808;2024-03-07T10:34:11;94670.09;;;4.30;100.00
62978;BME280;49073;42.352;23.808;2024-03-07T10:37:15;94661.50;;;4.50;100.00
62978;BME280;49073;42.352;23.808;2024-03-07T10:40:22;94662.25;;;4.60;100.00
62978;BME280;49073;42.352;23.808;2024-03-07T10:43:23;94662.72;;;4.62;100.00
62978;BME280;49073;42.352;23.808;2024-03-07T10:46:26;94669.41;;;4.59;100.00
62978;BME280;49073;42.352;23.808;2024-03-07T10:49:31;94667.88;;;4.58;100.00
62978;BME280;49073;42.352;23.808;2024-03-07T10:52:39;94671.31;;;4.50;100.00
62978;BME280;49073;42.352;23.808;2024-03-07T10:59:29;94660.53;;;4.64;100.00
62978;BME280;49073;42.352;23.808;2024-03-07T11:02:40;94660.41;;;4.51;100.00
62978;BME280;49073;42.352;23.808;2024-03-07T11:05:45;94648.78;;;4.53;100.00
62978;BME280;49073;42.352;23.808;2024-03-07T11:08:46;94650.19;;;4.50;100.00
62978;BME280;49073;42.352;23.808;2024-03-07T11:11:47;94639.88;;;4.66;100.00
62978;BME280;49073;42.352;23.808;2024-03-07T11:14:50;94654.06;;;4.53;100.00
62978;BME280;49073;42.352;23.808;2024-03-07T11:17:53;94633.22;;;4.60;100.00
62978;BME280;49073;42.352;23.808;2024-03-07T11:20:55;94640.69;;;4.58;100.00
62978;BME280;49073;42.352;23.808;2024-03-07T11:23:58;94633.22;;;4.60;100.00
62978;BME280;49073;42.352;23.808;2024-03-07T11:27:03;94634.94;;;4.64;100.00
62978;BME280;49073;42.352;23.808;2024-03-07T11:30:09;94636.47;;;4.65;100.00
62978;BME280;49073;42.352;23.808;2024-03-07T11:33:11;94630.09;;;4.75;100.00
62978;BME280;49073;42.352;23.808;2024-03-07T11:36:43;94637.69;;;4.77;100.00
62978;BME280;49073;42.352;23.808;2024-03-07T11:39:46;94636.97;;;4.59;100.00
62978;BME280;49073;42.352;23.808;2024-03-07T11:42:48;94633.28;;;4.42;100.00
62978;BME280;49073;42.352;23.808;2024-03-07T11:45:49;94635.00;;;4.47;100.00
62978;BME280;49073;42.352;23.808;2024-03-07T11:48:54;94634.78;;;4.61;100.00
62978;BME280;49073;42.352;23.808;2024-03-07T11:51:59;94626.28;;;4.55;100.00
62978;BME280;49073;42.352;23.808;2024-03-07T11:55:00;94633.56;;;4.49;100.00
62978;BME280;49073;42.352;23.808;2024-03-07T11:58:17;94632.69;;;4.28;100.00
62978;BME280;49073;42.352;23.808;2024-03-07T12:01:18;94634.38;;;4.32;100.00
62978;BME280;49073;42.352;23.808;2024-03-07T12:04:18;94631.91;;;4.27;100.00
62978;BME280;49073;42.352;23.808;2024-03-07T12:07:19;94630.81;;;4.28;100.00
62978;BME280;49073;42.352;23.808;2024-03-07T12:10:22;94631.78;;;4.24;100.00
62978;BME280;49073;42.352;23.808;2024-03-07T12:13:25;94630.38;;;4.26;100.00
62978;BME280;49073;42.352;23.808;2024-03-07T12:16:26;94623.69;;;4.29;100.00
62978;BME280;49073;42.352;23.808;2024-03-07T12:19:27;94631.28;;;4.39;100.00
62978;BME280;49073;42.352;23.808;2024-03-07T12:22:29;94631.44;;;4.25;100.00
62978;BME280;49073;42.352;23.808;2024-03-07T12:25:29;94629.56;;;4.34;100.00
62978;BME280;49073;42.352;23.808;2024-03-07T12:28:31;94633.59;;;4.41;100.00
62978;BME280;49073;42.352;23.808;2024-03-07T12:31:33;94629.28;;;4.36;100.00
62978;BME280;49073;42.352;23.808;2024-03-07T12:34:37;94625.84;;;4.35;100.00
62978;BME280;49073;42.352;23.808;2024-03-07T12:37:41;94625.53;;;4.46;100.00
62978;BME280;49073;42.352;23.808;2024-03-07T12:40:43;94623.03;;;4.41;100.00
62978;BME280;49073;42.352;23.808;2024-03-07T12:43:43;94621.47;;;4.40;100.00
62978;BME280;49073;42.352;23.808;2024-03-07T12:46:47;94622.28;;;4.40;100.00
62978;BME280;49073;42.352;23.808;2024-03-07T12:49:48;94610.16;;;4.39;100.00
62978;BME280;49073;42.352;23.808;2024-03-07T12:52:49;94616.31;;;4.61;100.00
62978;BME280;49073;42.352;23.808;2024-03-07T12:55:51;94616.91;;;4.66;100.00
62978;BME280;49073;42.352;23.808;2024-03-07T12:58:52;94607.44;;;4.65;100.00
62978;BME280;49073;42.352;23.808;2024-03-07T13:01:54;94598.41;;;4.75;100.00
62978;BME280;49073;42.352;23.808;2024-03-07T13:04:57;94585.53;;;4.74;100.00
62978;BME280;49073;42.352;23.808;2024-03-07T13:07:58;94578.78;;;4.85;100.00
62978;BME280;49073;42.352;23.808;2024-03-07T13:10:58;94585.44;;;4.91;100.00
62978;BME280;49073;42.352;23.808;2024-03-07T13:14:00;94597.66;;;5.05;100.00
62978;BME280;49073;42.352;23.808;2024-03-07T13:17:03;94595.88;;;4.88;100.00
62978;BME280;49073;42.352;23.808;2024-03-07T13:20:05;94599.44;;;4.83;100.00
62978;BME280;49073;42.352;23.808;2024-03-07T13:23:11;94608.16;;;4.84;100.00
62978;BME280;49073;42.352;23.808;2024-03-07T13:26:12;94602.56;;;4.85;100.00
62978;BME280;49073;42.352;23.808;2024-03-07T13:29:17;94606.66;;;4.65;100.00
62978;BME280;49073;42.352;23.808;2024-03-07T13:32:17;94613.03;;;4.64;100.00
62978;BME280;49073;42.352;23.808;2024-03-07T13:35:18;94605.78;;;4.52;100.00
62978;BME280;49073;42.352;23.808;2024-03-07T13:38:20;94599.88;;;4.55;100.00
62978;BME280;49073;42.352;23.808;2024-03-07T13:41:22;94609.03;;;4.58;100.00
62978;BME280;49073;42.352;23.808;2024-03-07T13:44:22;94604.38;;;4.55;100.00
62978;BME280;49073;42.352;23.808;2024-03-07T13:47:23;94599.25;;;4.58;100.00
62978;BME280;49073;42.352;23.808;2024-03-07T13:50:26;94603.81;;;4.40;100.00
62978;BME280;49073;42.352;23.808;2024-03-07T13:53:29;94599.16;;;4.37;100.00
62978;BME280;49073;42.352;23.808;2024-03-07T13:57:01;94596.97;;;4.39;100.00
62978;BME280;49073;42.352;23.808;2024-03-07T14:00:25;94594.34;;;4.39;100.00
62978;BME280;49073;42.352;23.808;2024-03-07T14:16:49;94605.91;;;4.64;100.00
62978;BME280;49073;42.352;23.808;2024-03-07T14:33:28;94593.13;;;4.75;100.00
62978;BME280;49073;42.352;23.808;2024-03-07T14:36:52;94596.88;;;4.74;100.00
62978;BME280;49073;42.352;23.808;2024-03-07T14:40:13;94595.81;;;4.66;100.00
62978;BME280;49073;42.352;23.808;2024-03-07T14:43:14;94599.06;;;4.63;100.00
62978;BME280;49073;42.352;23.808;2024-03-07T14:46:17;94604.34;;;4.72;100.00
62978;BME280;49073;42.352;23.808;2024-03-07T14:49:18;94606.66;;;4.65;100.00
62978;BME280;49073;42.352;23.808;2024-03-07T14:52:19;94597.03;;;4.69;100.00
62978;BME280;49073;42.352;23.808;2024-03-07T14:55:21;94592.69;;;4.73;100.00
62978;BME280;49073;42.352;23.808;2024-03-07T14:58:22;94600.94;;;4.63;100.00
62978;BME280;49073;42.352;23.808;2024-03-07T15:01:23;94598.28;;;4.63;100.00
62978;BME280;49073;42.352;23.808;2024-03-07T15:04:30;94599.53;;;4.65;100.00
62978;BME280;49073;42.352;23.808;2024-03-07T15:07:32;94600.59;;;4.73;100.00
62978;BME280;49073;42.352;23.808;2024-03-07T15:10:35;94595.81;;;4.66;100.00
62978;BME280;49073;42.352;23.808;2024-03-07T15:13:35;94590.97;;;4.69;100.00
62978;BME280;49073;42.352;23.808;2024-03-07T15:16:37;94595.00;;;4.66;100.00
62978;BME280;49073;42.352;23.808;2024-03-07T15:19:37;94594.69;;;4.76;100.00
62978;BME280;49073;42.352;23.808;2024-03-07T15:22:38;94594.38;;;4.69;100.00
62978;BME280;49073;42.352;23.808;2024-03-07T15:25:38;94592.72;;;4.56;100.00
62978;BME280;49073;42.352;23.808;2024-03-07T15:28:39;94602.53;;;4.46;100.00
62978;BME280;49073;42.352;23.808;2024-03-07T15:31:39;94591.50;;;4.53;100.00
62978;BME280;49073;42.352;23.808;2024-03-07T15:34:40;94599.91;;;4.46;100.00
62978;BME280;49073;42.352;23.808;2024-03-07T15:37:41;94612.00;;;4.47;100.00
62978;BME280;49073;42.352;23.808;2024-03-07T15:40:42;94616.53;;;4.47;100.00
62978;BME280;49073;42.352;23.808;2024-03-07T15:43:43;94621.81;;;4.47;100.00
62978;BME280;49073;42.352;23.808;2024-03-07T15:46:43;94626.41;;;4.59;100.00
62978;BME280;49073;42.352;23.808;2024-03-07T15:49:45;94633.38;;;4.63;100.00
62978;BME280;49073;42.352;23.808;2024-03-07T15:52:48;94627.94;;;4.60;100.00
62978;BME280;49073;42.352;23.808;2024-03-07T15:55:49;94631.56;;;4.46;100.00
62978;BME280;49073;42.352;23.808;2024-03-07T15:58:49;94639.31;;;4.51;100.00
62978;BME280;49073;42.352;23.808;2024-03-07T16:01:50;94638.25;;;4.44;100.00
62978;BME280;49073;42.352;23.808;2024-03-07T16:04:50;94637.78;;;4.42;100.00
62978;BME280;49073;42.352;23.808;2024-03-07T16:07:52;94641.66;;;4.35;100.00
62978;BME280;49073;42.352;23.808;2024-03-07T16:10:53;94648.19;;;4.38;100.00
62978;BME280;49073;42.352;23.808;2024-03-07T16:13:53;94642.75;;;4.34;100.00
62978;BME280;49073;42.352;23.808;2024-03-07T16:16:54;94649.28;;;4.37;100.00
62978;BME280;49073;42.352;23.808;2024-03-07T16:19:54;94641.53;;;4.23;100.00
62978;BME280;49073;42.352;23.808;2024-03-07T16:22:55;94655.97;;;4.26;100.00